This is the latest recevied weather packets stored in our database for station/object W0AKY-13. If no packets are shown the sender has not sent any weather packets the latest 10 day(s).
| Time | Temp. | Humidity | Pressure | Rain* | Wind** | Luminosity | Snow |
|---|---|---|---|---|---|---|---|
| 1777577715 | 13.89° C | 55% | 1019.7 hPa | 0 mm | - | 680 W/m² | - |
| 1777577412 | 13.89° C | 55% | 1019.7 hPa | 0 mm | - | 579 W/m² | - |
| 1777577108 | 13.89° C | 58% | 1019.7 hPa | 0 mm | - | 252 W/m² | - |
| 1777576804 | 13.89° C | 56% | 1019.7 hPa | 0 mm | - | 142 W/m² | - |
| 1777576504 | 13.89° C | 58% | 1019.6 hPa | 0 mm | - | 345 W/m² | - |
| 1777576200 | 14.44° C | 59% | 1019.4 hPa | 0 mm | - | 133 W/m² | - |
| 1777575896 | 15° C | 60% | 1019.6 hPa | 0 mm | - | 687 W/m² | - |
| 1777575593 | 15° C | 59% | 1019.6 hPa | 0 mm | - | 720 W/m² | - |
| 1777575289 | 14.44° C | 60% | 1019.4 hPa | 0 mm | - | 670 W/m² | - |
| 1777574985 | 14.44° C | 62% | 1019.4 hPa | 0 mm | - | 182 W/m² | - |
| 1777574681 | 14.44° C | 63% | 1019.4 hPa | 0 mm | - | 500 W/m² | - |
| 1777574379 | 13.89° C | 64% | 1019.4 hPa | 0 mm | - | 578 W/m² | - |
| 1777574079 | 13.89° C | 63% | 1019.5 hPa | 0 mm | - | 675 W/m² | - |
| 1777573774 | 15° C | 61% | 1019.6 hPa | 0 mm | - | 183 W/m² | - |
| 1777573471 | 15.56° C | 59% | 1019.4 hPa | 0 mm | - | 537 W/m² | - |
| 1777573167 | 15° C | 63% | 1019.4 hPa | 0 mm | - | 711 W/m² | - |
| 1777572863 | 15° C | 63% | 1019.4 hPa | 0 mm | - | 698 W/m² | - |
| 1777572560 | 15° C | 64% | 1019.5 hPa | 0 mm | - | 473 W/m² | - |
| 1777572255 | 14.44° C | 67% | 1019.4 hPa | 0 mm | - | 800 W/m² | - |
| 1777571950 | 15.56° C | 64% | 1019.5 hPa | 0 mm | - | 152 W/m² | - |
| 1777571645 | 15° C | 62% | 1019.6 hPa | 0 mm | - | 738 W/m² | - |
| 1777571343 | 15.56° C | 59% | 1019.5 hPa | 0 mm | - | 191 W/m² | - |
| 1777571039 | 15.56° C | 62% | 1019.4 hPa | 0 mm | - | 739 W/m² | - |
| 1777570735 | 15.56° C | 61% | 1019.5 hPa | 0 mm | - | 676 W/m² | - |
| 1777570432 | 15° C | 63% | 1019.5 hPa | 0 mm | - | 698 W/m² | - |
* Rain latest hour (hover to see other rain measurements)
** Current wind speed in m/s (hover to see current wind gust speed)